createdAt,value
2022-09-16T04:31:25.896Z,10.80
2022-09-16T04:33:54.031Z,10.60
2022-09-16T04:36:21.974Z,10.70
2022-09-16T04:38:50.687Z,10.70
2022-09-16T04:41:20.299Z,10.80
2022-09-16T04:43:52.136Z,10.80
2022-09-16T04:46:20.611Z,10.90
2022-09-16T04:48:50.479Z,10.90
2022-09-16T04:51:19.627Z,11.00
2022-09-16T04:53:48.295Z,11.00
2022-09-16T04:56:18.111Z,11.00
2022-09-16T04:58:48.006Z,10.90
2022-09-16T08:47:39.048Z,14.30
2022-09-16T08:57:28.122Z,14.20
2022-09-16T08:59:58.830Z,14.30
2022-09-16T09:05:20.006Z,14.90
2022-09-16T09:08:05.968Z,14.90
2022-09-16T09:10:43.782Z,14.80
2022-09-16T09:27:28.379Z,12.50
2022-09-16T09:30:07.107Z,12.50
2022-09-16T09:32:52.244Z,12.70
2022-09-16T09:35:31.102Z,12.90
2022-09-16T09:38:42.640Z,13.00
2022-09-16T09:41:13.418Z,13.50
2022-09-16T09:43:46.109Z,14.00
2022-09-16T09:46:19.140Z,14.30
2022-09-16T09:48:51.710Z,14.50
2022-09-16T09:51:27.777Z,14.40
2022-09-16T09:54:01.256Z,14.20
2022-09-16T10:03:54.415Z,14.10
2022-09-16T10:06:27.621Z,14.20
2022-09-16T10:08:58.947Z,14.30
2022-09-16T10:11:31.087Z,14.40
2022-09-16T10:28:27.799Z,15.00
2022-09-16T10:30:58.174Z,15.00
2022-09-16T10:40:57.986Z,14.80
2022-09-16T10:43:27.781Z,14.90
2022-09-16T10:45:56.647Z,15.10
2022-09-16T10:55:42.332Z,15.60
2022-09-16T10:58:15.639Z,16.00
2022-09-16T11:00:51.503Z,16.30
2022-09-16T11:03:49.632Z,16.00
2022-09-16T11:06:31.670Z,16.10
2022-09-16T11:09:08.817Z,16.60
2022-09-16T11:11:49.871Z,16.70
2022-09-16T11:14:28.471Z,16.70
2022-09-16T11:17:16.452Z,16.60
2022-09-16T11:20:01.844Z,16.80
2022-09-16T11:22:38.187Z,16.60
2022-09-16T11:25:34.573Z,16.90
2022-09-16T11:28:28.436Z,17.20
2022-09-16T11:31:05.187Z,17.60
2022-09-16T11:33:40.506Z,18.10
2022-09-16T11:36:32.664Z,17.70
2022-09-16T11:39:14.804Z,17.10
2022-09-16T11:41:51.843Z,16.60
2022-09-16T11:44:38.742Z,16.40
2022-09-16T11:47:42.565Z,16.40
2022-09-16T11:50:22.083Z,16.30
2022-09-16T11:53:18.592Z,16.00
2022-09-16T11:55:53.784Z,15.70
2022-09-16T11:58:28.672Z,15.60
2022-09-16T12:01:02.789Z,15.60
2022-09-16T12:03:38.967Z,15.60
2022-09-16T12:06:11.556Z,15.40
2022-09-16T12:08:51.257Z,15.20
2022-09-16T12:11:23.129Z,15.10
2022-09-16T12:14:05.651Z,14.80
2022-09-16T12:16:41.449Z,14.70
2022-09-16T12:19:15.826Z,14.50
2022-09-16T12:21:49.712Z,14.30
2022-09-16T12:24:24.682Z,14.20
2022-09-16T12:27:01.199Z,14.90
2022-09-16T12:29:36.043Z,15.70
2022-09-16T12:32:10.033Z,15.60
2022-09-16T12:34:41.102Z,15.70
2022-09-16T12:37:26.451Z,16.00
2022-09-16T12:39:54.556Z,16.10
2022-09-16T12:42:57.725Z,16.50
2022-09-16T12:46:13.642Z,16.70
2022-09-16T12:49:12.502Z,16.60
2022-09-16T12:51:54.445Z,16.90
2022-09-16T12:55:07.723Z,17.00
2022-09-16T12:57:48.828Z,17.40
2022-09-16T13:00:21.627Z,17.80
2022-09-16T13:02:53.162Z,17.80
2022-09-16T13:05:30.912Z,17.40
2022-09-16T13:08:04.229Z,17.70
2022-09-16T13:10:54.341Z,17.60
2022-09-16T13:13:31.050Z,17.60
2022-09-16T13:16:01.636Z,17.50
2022-09-16T13:18:42.028Z,17.50
2022-09-16T13:21:22.663Z,17.80
2022-09-16T13:23:58.810Z,18.40
2022-09-16T13:26:26.967Z,19.00
2022-09-16T13:28:57.168Z,18.30
2022-09-16T13:31:34.230Z,18.60
2022-09-16T13:34:17.261Z,19.10
2022-09-16T13:36:46.877Z,18.60
2022-09-16T13:39:17.388Z,18.50
2022-09-16T13:41:49.105Z,18.60
2022-09-16T13:44:40.240Z,19.00
2022-09-16T13:47:18.443Z,18.80
2022-09-16T13:49:51.751Z,19.10
2022-09-16T13:52:25.833Z,19.30
2022-09-16T13:55:12.296Z,19.30
2022-09-16T13:58:02.627Z,19.00
2022-09-16T14:00:38.794Z,18.90
2022-09-16T14:03:28.414Z,19.10
2022-09-16T14:06:19.984Z,19.40
2022-09-16T14:08:58.998Z,20.20
2022-09-16T14:11:37.613Z,20.50
2022-09-16T14:14:15.655Z,20.20
2022-09-16T14:16:53.940Z,20.30
2022-09-16T14:19:27.826Z,19.80
2022-09-16T14:22:02.967Z,20.30
2022-09-16T14:24:37.308Z,20.10
2022-09-16T14:27:06.602Z,20.80
2022-09-16T14:29:34.677Z,21.10
2022-09-16T14:32:05.785Z,20.80
2022-09-16T14:34:37.327Z,19.80
2022-09-16T14:37:06.429Z,19.50
2022-09-16T14:39:45.697Z,19.60
2022-09-16T14:42:18.804Z,20.10
2022-09-16T14:44:49.188Z,20.10
2022-09-16T14:47:39.691Z,19.50
2022-09-16T14:50:17.389Z,19.10
2022-09-16T14:52:55.702Z,19.00
2022-09-16T14:55:30.274Z,19.30
2022-09-16T14:57:59.104Z,19.40
2022-09-16T15:00:31.471Z,20.20
2022-09-16T15:03:04.699Z,19.50
2022-09-16T15:05:35.704Z,19.40
2022-09-16T15:08:14.980Z,19.10
2022-09-16T15:10:55.309Z,19.50
2022-09-16T15:13:27.428Z,19.10
2022-09-16T15:15:58.552Z,19.90
2022-09-16T15:18:29.639Z,20.50
2022-09-16T15:21:06.241Z,18.30
2022-09-16T15:23:36.095Z,17.10
2022-09-16T15:26:14.488Z,16.70
2022-09-16T15:28:57.370Z,16.60
2022-09-16T15:31:34.795Z,17.00
2022-09-16T15:34:06.144Z,17.30
2022-09-16T15:36:39.844Z,17.40
2022-09-16T15:39:23.543Z,16.90
2022-09-16T15:42:06.222Z,17.70
2022-09-16T15:44:37.287Z,18.20
2022-09-16T15:47:06.190Z,18.40
2022-09-16T15:49:40.414Z,18.80
2022-09-16T15:52:11.588Z,19.20
2022-09-16T15:54:48.923Z,19.50
2022-09-16T15:57:28.775Z,18.90
2022-09-16T16:00:09.400Z,18.90
2022-09-16T16:02:41.220Z,19.20
2022-09-16T16:05:11.835Z,19.10
2022-09-16T16:07:42.678Z,19.20
2022-09-16T16:10:20.349Z,19.30
2022-09-16T16:12:50.418Z,19.00
2022-09-16T16:15:20.444Z,19.00
2022-09-16T16:17:49.526Z,19.50
2022-09-16T16:20:20.115Z,19.10
2022-09-16T16:22:49.242Z,18.80
2022-09-16T16:25:18.333Z,18.70
2022-09-16T16:27:46.789Z,18.40
2022-09-16T16:30:16.314Z,18.00
2022-09-16T16:32:44.736Z,17.90
2022-09-16T16:35:13.322Z,17.80
2022-09-16T16:37:46.582Z,17.30
2022-09-16T16:40:15.965Z,17.20
2022-09-16T16:42:44.475Z,16.90
2022-09-16T16:45:14.530Z,17.00
2022-09-16T16:47:44.869Z,16.60
2022-09-16T16:50:13.004Z,16.30
2022-09-16T16:52:41.005Z,16.20
2022-09-16T16:55:10.299Z,16.20
2022-09-16T16:57:38.344Z,16.40
2022-09-16T17:00:07.468Z,16.60
2022-09-16T17:02:35.536Z,16.50
2022-09-16T17:05:05.865Z,16.60
2022-09-16T17:07:33.891Z,16.30
2022-09-16T17:10:01.888Z,16.20
2022-09-16T17:12:30.031Z,15.90
2022-09-16T17:14:58.067Z,15.80
2022-09-16T17:17:30.677Z,15.70
2022-09-16T17:20:00.341Z,15.70
2022-09-16T17:22:29.706Z,15.70
2022-09-16T17:24:58.034Z,15.60
2022-09-16T17:27:27.677Z,15.50
2022-09-16T17:29:55.648Z,15.40
2022-09-16T17:32:23.610Z,15.30
2022-09-16T17:34:51.568Z,15.20
2022-09-16T17:37:19.974Z,15.10
2022-09-16T17:39:49.854Z,15.00
2022-09-16T17:42:17.939Z,14.90
2022-09-16T17:44:45.866Z,14.90
2022-09-16T17:47:13.815Z,14.70
2022-09-16T17:49:41.816Z,14.70
2022-09-16T17:52:09.826Z,14.60
2022-09-16T17:54:38.044Z,14.50
2022-09-16T17:57:07.426Z,14.40
2022-09-16T17:59:35.387Z,14.30
2022-09-16T18:02:11.515Z,14.20
2022-09-16T18:04:39.466Z,14.10
2022-09-16T18:07:07.562Z,14.00
2022-09-16T18:09:35.488Z,13.90
2022-09-16T18:12:03.858Z,13.80
2022-09-16T18:14:33.572Z,13.60
2022-09-16T18:17:01.559Z,13.60
2022-09-16T18:19:29.720Z,13.60
2022-09-16T18:21:57.688Z,13.50
2022-09-16T18:24:25.656Z,13.60
2022-09-16T18:26:53.621Z,13.50
2022-09-16T18:29:21.800Z,13.40
2022-09-16T18:31:52.733Z,13.40
2022-09-16T18:34:20.771Z,13.40
2022-09-16T18:36:48.775Z,13.40
2022-09-16T18:39:18.308Z,13.40
2022-09-16T18:41:47.420Z,13.30
2022-09-16T18:44:17.276Z,13.20
2022-09-16T18:46:45.507Z,13.20
2022-09-16T18:49:16.520Z,13.10
2022-09-16T18:51:50.089Z,13.00
2022-09-16T18:54:24.681Z,12.90
2022-09-16T18:56:53.327Z,12.80
2022-09-16T18:59:24.391Z,12.80
2022-09-16T19:01:54.295Z,12.70
2022-09-16T19:04:27.194Z,12.70
2022-09-16T19:06:59.329Z,12.70
2022-09-16T19:09:27.730Z,12.60
2022-09-16T19:11:56.230Z,12.60
2022-09-16T19:14:27.443Z,12.50
2022-09-16T19:16:56.130Z,12.60
2022-09-16T19:19:25.485Z,12.50
2022-09-16T19:21:53.682Z,12.60
2022-09-16T19:24:23.566Z,12.60
2022-09-16T19:26:54.901Z,12.60
2022-09-16T19:29:26.519Z,12.70
2022-09-16T19:31:54.720Z,12.80
2022-09-16T19:34:23.355Z,12.90
2022-09-16T19:36:52.703Z,12.90
2022-09-16T19:39:21.452Z,13.00
2022-09-16T19:41:49.826Z,13.00
2022-09-16T19:44:18.951Z,13.10
2022-09-16T19:46:49.309Z,13.00
2022-09-16T19:49:20.600Z,13.00
2022-09-16T19:51:49.480Z,12.90
2022-09-16T19:54:19.479Z,12.90
2022-09-16T19:56:50.688Z,12.90
2022-09-16T19:59:19.769Z,12.70
2022-09-16T20:01:47.887Z,12.60
2022-09-16T20:04:19.518Z,12.50
2022-09-16T20:06:48.239Z,12.50
2022-09-16T20:09:16.919Z,12.50
2022-09-16T20:11:48.102Z,12.40
2022-09-16T20:14:18.984Z,12.30
2022-09-16T20:16:47.505Z,12.30
2022-09-16T20:19:17.520Z,12.30
2022-09-16T20:21:45.745Z,12.30
2022-09-16T20:24:16.531Z,12.30
2022-09-16T20:26:46.034Z,12.30
2022-09-16T20:29:14.330Z,12.20
2022-09-16T20:31:42.796Z,12.20
2022-09-16T20:34:12.477Z,12.10
2022-09-16T20:36:41.020Z,12.10
2022-09-16T20:39:10.252Z,11.90
2022-09-16T20:41:40.319Z,12.00
2022-09-16T20:44:13.847Z,12.00
2022-09-16T20:46:41.925Z,11.90
2022-09-16T20:49:14.453Z,11.80
2022-09-16T20:51:42.457Z,11.60
2022-09-16T20:54:13.177Z,11.60
2022-09-16T20:56:42.775Z,11.60
2022-09-16T20:59:14.138Z,11.50
2022-09-16T21:01:42.630Z,11.50
2022-09-16T21:04:14.477Z,11.60
2022-09-16T21:06:42.686Z,11.60
2022-09-16T21:09:12.719Z,11.60
2022-09-16T21:11:45.101Z,11.70
2022-09-16T21:14:16.505Z,11.80
2022-09-16T21:16:46.105Z,11.80
2022-09-16T21:19:14.590Z,11.80
2022-09-16T21:21:46.255Z,11.80
2022-09-16T21:24:15.804Z,11.80
2022-09-16T21:26:44.502Z,11.90
2022-09-16T21:29:15.717Z,11.80
2022-09-16T21:31:44.379Z,11.70
2022-09-16T21:34:15.387Z,11.70
2022-09-16T21:36:44.587Z,11.70
2022-09-16T21:39:13.758Z,11.70
2022-09-16T21:41:42.237Z,11.60
2022-09-16T21:44:10.421Z,11.60
2022-09-16T21:46:43.179Z,11.60
2022-09-16T21:49:22.358Z,11.60
2022-09-16T21:51:51.101Z,11.60
2022-09-16T21:54:20.570Z,11.60
2022-09-16T21:56:49.679Z,11.50
2022-09-16T21:59:19.705Z,11.60
2022-09-16T22:01:50.893Z,11.50
2022-09-16T22:04:21.106Z,11.60
2022-09-16T22:06:49.822Z,11.60
2022-09-16T22:09:18.298Z,11.60
2022-09-16T22:11:46.510Z,11.60
2022-09-16T22:14:14.571Z,11.60
2022-09-16T22:16:42.927Z,11.60
2022-09-16T22:19:14.531Z,11.60
2022-09-16T22:21:44.558Z,11.60
2022-09-16T22:24:12.867Z,11.60
2022-09-16T22:26:41.407Z,11.60
2022-09-16T22:29:11.412Z,11.60
2022-09-16T22:31:41.393Z,11.50
2022-09-16T22:34:09.872Z,11.50
2022-09-16T22:36:40.306Z,11.40
2022-09-16T22:39:13.460Z,11.40
2022-09-16T22:41:41.893Z,11.40
2022-09-16T22:44:10.059Z,11.40
2022-09-16T22:46:41.701Z,11.40
2022-09-16T22:49:10.927Z,11.40
2022-09-16T22:51:40.262Z,11.30
2022-09-16T22:54:09.445Z,11.30
2022-09-16T22:56:37.704Z,11.30
2022-09-16T22:59:07.898Z,11.30
2022-09-16T23:01:38.921Z,11.30
2022-09-16T23:04:08.916Z,11.20
2022-09-16T23:06:38.250Z,11.20
2022-09-16T23:09:08.564Z,11.20
2022-09-16T23:11:37.067Z,11.20
2022-09-16T23:14:06.397Z,11.20
2022-09-16T23:16:37.241Z,11.20
2022-09-16T23:19:11.116Z,11.20
2022-09-16T23:21:40.149Z,11.20
2022-09-16T23:24:17.658Z,11.20
2022-09-16T23:26:46.905Z,11.30
2022-09-16T23:29:16.628Z,11.20
2022-09-16T23:31:45.669Z,11.20
2022-09-16T23:34:16.643Z,11.10
2022-09-16T23:36:45.320Z,11.10
2022-09-16T23:39:16.584Z,11.00
2022-09-16T23:41:45.373Z,11.00
2022-09-16T23:44:15.657Z,11.00
2022-09-16T23:46:44.433Z,11.00
2022-09-16T23:49:13.113Z,11.00
2022-09-16T23:51:41.065Z,10.90
2022-09-16T23:54:09.325Z,10.90
2022-09-16T23:56:38.775Z,10.80
2022-09-16T23:59:06.719Z,10.90
